Time;durP1;ratioP1;P1;durP2;ratioP2;P2;SDS_P1;SDS_P2;PMS_P1;PMS_P2;Temp;Humidity;BMP_temperature;BMP_pressure;BME280_temperature;BME280_humidity;BME280_pressure;Samples;Min_cycle;Max_cycle;Signal;HPM_P1;HPM_P2
2021/04/29 00:01:49;;;;;;;11.82;10.63;;;;;;;14.79;43.78;99379.13;5073417;28;20028;-67
2021/04/29 00:04:15;;;;;;;11.43;10.07;;;;;;;14.21;43.94;99382.56;5056748;28;20016;-68
2021/04/29 00:06:41;;;;;;;12.13;10.82;;;;;;;14.73;42.98;99380.25;5056291;28;20030;-68
2021/04/29 00:09:06;;;;;;;12.82;11.02;;;;;;;13.62;44.21;99379.84;5065071;28;20479;-68
2021/04/29 00:11:33;;;;;;;13.20;11.10;;;;;;;12.74;46.58;99371.84;5056833;28;20111;-67
2021/04/29 00:13:59;;;;;;;15.75;11.90;;;;;;;13.82;45.26;99364.88;5056320;28;20390;-67
2021/04/29 00:16:25;;;;;;;15.77;11.80;;;;;;;14.39;44.31;99364.13;5069511;28;20091;-68
2021/04/29 00:18:50;;;;;;;12.95;11.00;;;;;;;15.63;43.36;99349.34;5073774;28;20487;-68
2021/04/29 00:21:15;;;;;;;13.75;11.02;;;;;;;14.68;45.31;99353.94;5073530;28;20034;-68
2021/04/29 00:23:41;;;;;;;11.68;10.52;;;;;;;14.72;43.95;99359.97;5073529;28;20043;-67
2021/04/29 00:26:06;;;;;;;12.02;10.20;;;;;;;14.34;44.62;99356.38;5071806;28;20493;-68
2021/04/29 00:28:31;;;;;;;14.35;10.75;;;;;;;14.31;44.83;99361.81;5073579;28;20028;-67
2021/04/29 00:30:57;;;;;;;12.65;11.27;;;;;;;14.59;44.63;99357.03;5060487;28;20028;-67
2021/04/29 00:33:22;;;;;;;12.63;10.18;;;;;;;15.50;43.19;99349.09;5073614;28;20056;-67
2021/04/29 00:35:47;;;;;;;13.70;11.18;;;;;;;14.87;43.86;99345.09;5072678;28;20124;-68
2021/04/29 00:38:13;;;;;;;16.55;11.80;;;;;;;14.27;44.95;99338.16;5061346;28;20047;-68
2021/04/29 00:40:41;;;;;;;13.00;11.30;;;;;;;14.51;44.22;99346.78;5072997;28;20487;-68
2021/04/29 00:43:09;;;;;;;14.70;11.43;;;;;;;14.16;46.34;99346.59;5060138;28;20017;-68
2021/04/29 00:45:34;;;;;;;13.63;11.15;;;;;;;13.88;47.10;99348.72;5058053;28;20035;-68
2021/04/29 00:48:00;;;;;;;14.20;11.07;;;;;;;14.42;45.46;99336.59;5072541;28;20037;-68
2021/04/29 00:50:25;;;;;;;13.40;11.38;;;;;;;13.49;48.56;99338.91;5072961;28;20120;-68
2021/04/29 00:52:51;;;;;;;12.82;11.55;;;;;;;13.00;50.52;99334.72;5056756;28;20039;-68
2021/04/29 00:55:16;;;;;;;13.18;11.85;;;;;;;13.43;49.87;99327.63;5065252;28;20265;-68
2021/04/29 00:57:41;;;;;;;13.57;12.23;;;;;;;13.61;48.63;99322.50;5072777;28;20032;-68
2021/04/29 01:00:08;;;;;;;14.32;11.57;;;;;;;14.00;47.74;99314.63;5072819;28;20107;-68
2021/04/29 01:02:35;;;;;;;15.32;11.57;;;;;;;13.94;47.73;99327.22;5055062;28;20403;-68
2021/04/29 01:05:04;;;;;;;14.68;11.73;;;;;;;14.60;45.85;99325.13;5072517;28;20071;-68
2021/04/29 01:07:32;;;;;;;15.00;12.75;;;;;;;14.67;46.13;99314.22;5059522;28;20028;-68
2021/04/29 01:10:08;;;;;;;13.15;11.20;;;;;;;15.38;45.18;99305.41;5055807;28;20016;-67
2021/04/29 01:12:45;;;;;;;15.57;12.00;;;;;;;14.13;48.51;99305.19;5066714;28;20063;-67
2021/04/29 01:15:11;;;;;;;16.00;11.93;;;;;;;14.80;46.89;99287.97;5063321;28;20452;-67
2021/04/29 01:17:38;;;;;;;15.00;10.85;;;;;;;14.66;47.08;99284.16;5063753;28;20029;-68
2021/04/29 01:20:07;;;;;;;13.63;11.77;;;;;;;14.19;46.25;99278.38;5058485;28;20112;-68
2021/04/29 01:22:51;;;;;;;15.07;12.00;;;;;;;14.16;46.39;99289.13;5072932;28;20025;-68
2021/04/29 01:25:16;;;;;;;13.90;10.88;;;;;;;13.88;45.89;99287.75;5068264;28;20020;-67
2021/04/29 01:27:42;;;;;;;17.35;12.73;;;;;;;15.01;45.35;99273.63;5070925;28;20568;-68
2021/04/29 01:30:11;;;;;;;16.00;12.38;;;;;;;14.83;44.93;99278.06;5069546;28;20024;-68
2021/04/29 01:32:37;;;;;;;19.65;14.23;;;;;;;15.38;44.31;99272.69;5072001;28;20497;-67
2021/04/29 01:35:05;;;;;;;18.25;14.25;;;;;;;15.82;43.00;99278.41;5072168;28;20029;-68
2021/04/29 01:37:31;;;;;;;17.65;13.80;;;;;;;13.32;45.92;99288.38;5055532;28;20452;-68
2021/04/29 01:39:57;;;;;;;15.38;12.52;;;;;;;13.55;46.88;99288.31;5054566;28;20024;-67
2021/04/29 01:42:23;;;;;;;13.88;12.45;;;;;;;14.17;45.90;99271.44;5054320;28;20494;-67
2021/04/29 01:44:48;;;;;;;16.10;12.40;;;;;;;14.42;46.00;99283.53;5072277;28;20070;-68
2021/04/29 01:47:14;;;;;;;13.63;11.80;;;;;;;14.60;44.25;99303.00;5062603;28;20061;-68
2021/04/29 01:49:39;;;;;;;16.50;13.52;;;;;;;15.17;43.95;99286.13;5064791;28;20024;-68
2021/04/29 01:52:08;;;;;;;17.58;12.38;;;;;;;14.98;43.17;99257.00;5071903;28;20024;-68
2021/04/29 01:54:34;;;;;;;15.95;13.15;;;;;;;14.87;43.95;99242.47;5070427;28;20020;-68
2021/04/29 01:56:59;;;;;;;18.67;13.18;;;;;;;14.79;43.47;99236.69;5071750;28;20107;-68
2021/04/29 01:59:25;;;;;;;15.57;12.77;;;;;;;15.19;42.81;99263.00;5070669;28;20017;-67
2021/04/29 02:01:50;;;;;;;18.15;12.75;;;;;;;14.84;43.97;99277.13;5071146;28;20024;-68
2021/04/29 02:04:15;;;;;;;18.70;14.00;;;;;;;15.24;42.86;99257.47;5070943;28;20020;-68
2021/04/29 02:06:42;;;;;;;15.05;12.52;;;;;;;15.10;43.10;99264.34;5071548;28;20035;-68
2021/04/29 02:09:08;;;;;;;13.85;12.25;;;;;;;12.04;49.33;99279.31;5070211;28;20032;-68
2021/04/29 02:11:36;;;;;;;18.10;13.57;;;;;;;12.67;49.15;99276.00;5052195;28;20082;-67
2021/04/29 02:14:04;;;;;;;16.08;13.15;;;;;;;13.34;48.02;99261.81;5045809;28;20095;-68
2021/04/29 02:16:43;;;;;;;17.13;13.40;;;;;;;14.12;46.04;99263.69;5045669;28;20033;-68
2021/04/29 02:19:09;;;;;;;14.88;12.75;;;;;;;14.31;45.35;99265.50;5057781;28;20112;-68
2021/04/29 02:21:37;;;;;;;16.02;13.45;;;;;;;13.76;46.42;99267.09;5053495;28;20107;-68
2021/04/29 02:24:02;;;;;;;14.45;12.95;;;;;;;13.56;47.77;99263.53;5071865;28;20032;-67
2021/04/29 02:26:28;;;;;;;13.50;11.35;;;;;;;14.55;46.05;99257.28;5056949;28;20016;-68
2021/04/29 02:28:54;;;;;;;19.15;14.05;;;;;;;14.61;45.81;99246.38;5051810;28;20067;-68
2021/04/29 02:31:22;;;;;;;17.05;13.00;;;;;;;14.81;45.07;99264.00;5061496;28;20090;-68
2021/04/29 02:33:47;;;;;;;19.52;13.95;;;;;;;14.60;46.33;99292.41;5070562;28;20479;-67
2021/04/29 02:36:13;;;;;;;18.10;14.05;;;;;;;14.60;46.16;99279.13;5056214;28;20099;-68
2021/04/29 02:38:38;;;;;;;15.88;13.82;;;;;;;14.06;47.77;99272.78;5071090;28;20066;-68
2021/04/29 02:41:07;;;;;;;22.67;14.68;;;;;;;13.82;50.08;99285.38;5071354;28;20033;-68
2021/04/29 02:43:33;;;;;;;16.98;13.38;;;;;;;14.28;49.19;99277.09;5069729;28;20036;-68
2021/04/29 02:45:58;;;;;;;16.05;12.45;;;;;;;13.60;51.05;99281.88;5057140;28;20020;-68
2021/04/29 02:48:24;;;;;;;17.25;13.90;;;;;;;11.98;55.32;99282.16;5071046;28;20472;-68
2021/04/29 02:50:50;;;;;;;16.95;14.50;;;;;;;12.08;55.75;99283.56;5066069;28;20028;-67
2021/04/29 02:53:17;;;;;;;18.90;14.82;;;;;;;13.70;53.23;99281.47;5063358;28;20036;-67
2021/04/29 02:55:43;;;;;;;21.05;15.02;;;;;;;13.51;51.97;99270.84;5070949;28;20111;-68
2021/04/29 02:58:09;;;;;;;20.55;15.07;;;;;;;13.47;54.70;99273.59;5071259;28;20037;-68
2021/04/29 03:00:36;;;;;;;20.48;14.93;;;;;;;12.72;59.05;99282.88;5055034;28;20127;-68
2021/04/29 03:03:02;;;;;;;18.23;14.52;;;;;;;12.85;57.14;99284.13;5066051;28;20025;-68
2021/04/29 03:05:27;;;;;;;18.80;14.82;;;;;;;12.90;57.86;99287.44;5044480;28;20028;-68
2021/04/29 03:07:53;;;;;;;20.48;15.88;;;;;;;13.80;56.45;99292.50;5070982;28;20051;-68
2021/04/29 03:10:19;;;;;;;25.02;15.07;;;;;;;13.79;56.32;99285.50;5071047;28;20480;-67
2021/04/29 03:12:44;;;;;;;19.90;16.38;;;;;;;14.62;55.36;99270.19;5072453;28;20111;-67
2021/04/29 03:15:10;;;;;;;18.58;15.82;;;;;;;13.96;58.31;99282.97;5072444;28;20020;-68
2021/04/29 03:17:35;;;;;;;20.42;16.20;;;;;;;13.85;55.43;99290.53;5053630;28;20028;-68
2021/04/29 03:20:01;;;;;;;20.63;16.23;;;;;;;14.42;54.30;99284.41;5044040;28;20373;-68
2021/04/29 03:22:26;;;;;;;24.30;16.15;;;;;;;14.71;53.93;99282.13;5069905;28;20048;-68
2021/04/29 03:24:51;;;;;;;19.40;15.57;;;;;;;13.02;61.97;99280.78;5061658;28;20043;-67
2021/04/29 03:27:17;;;;;;;23.08;17.13;;;;;;;12.57;64.10;99269.34;5073895;28;20089;-68
2021/04/29 03:29:42;;;;;;;20.85;16.25;;;;;;;12.54;64.06;99264.22;5058540;28;20040;-69
2021/04/29 03:32:08;;;;;;;17.65;15.65;;;;;;;12.34;62.89;99249.13;5073201;28;20054;-68
2021/04/29 03:34:33;;;;;;;21.08;15.77;;;;;;;12.44;63.54;99240.75;5074353;28;20080;-67
2021/04/29 03:36:58;;;;;;;20.42;16.73;;;;;;;10.90;68.26;99248.91;5068454;28;20029;-67
2021/04/29 03:39:23;;;;;;;19.88;16.08;;;;;;;10.36;67.68;99252.38;5071103;28;20063;-68
2021/04/29 03:41:49;;;;;;;18.75;16.38;;;;;;;9.65;70.35;99255.31;5074118;28;20020;-67
2021/04/29 03:44:14;;;;;;;19.50;16.77;;;;;;;10.44;69.76;99238.94;5074791;28;20082;-68
2021/04/29 03:46:39;;;;;;;20.55;17.67;;;;;;;12.21;65.55;99232.88;5074161;28;20047;-67
2021/04/29 03:49:05;;;;;;;21.55;18.85;;;;;;;13.07;62.79;99227.63;5073150;28;20399;-67
2021/04/29 03:51:30;;;;;;;19.23;17.27;;;;;;;11.15;64.46;99234.91;5078902;28;20028;-69
2021/04/29 03:53:56;;;;;;;21.27;19.08;;;;;;;10.32;70.14;99234.91;5062953;28;20060;-67
2021/04/29 03:56:21;;;;;;;21.05;18.52;;;;;;;11.60;67.01;99230.69;5052333;28;20040;-68
2021/04/29 03:58:47;;;;;;;25.42;19.50;;;;;;;12.42;62.52;99245.25;5047251;28;20063;-68
2021/04/29 04:01:12;;;;;;;22.05;19.15;;;;;;;10.35;67.60;99255.91;5062729;28;20024;-67
2021/04/29 04:03:38;;;;;;;21.52;18.83;;;;;;;10.62;69.41;99253.34;5060082;28;20044;-67
2021/04/29 04:06:03;;;;;;;20.42;18.33;;;;;;;11.49;68.15;99246.06;5073109;28;20060;-67
2021/04/29 04:08:29;;;;;;;20.58;18.38;;;;;;;12.21;65.76;99251.38;5073781;28;20052;-67
2021/04/29 04:10:54;;;;;;;20.60;17.67;;;;;;;12.82;62.90;99249.84;5056211;28;20440;-68
2021/04/29 04:13:21;;;;;;;20.38;18.23;;;;;;;12.45;61.98;99250.41;5042166;28;20038;-67
2021/04/29 04:15:46;;;;;;;23.02;18.50;;;;;;;13.56;59.48;99250.28;5055896;28;20089;-67
2021/04/29 04:18:12;;;;;;;21.27;19.08;;;;;;;12.82;62.34;99253.38;5055958;28;20476;-67
2021/04/29 04:20:38;;;;;;;23.23;19.15;;;;;;;13.17;60.53;99244.84;5073627;28;20066;-68
2021/04/29 04:23:03;;;;;;;22.15;19.90;;;;;;;13.28;62.03;99240.88;5056782;28;20047;-68
2021/04/29 04:25:29;;;;;;;25.30;19.42;;;;;;;13.65;60.55;99246.38;5072974;28;20438;-69
2021/04/29 04:27:54;;;;;;;21.35;19.00;;;;;;;14.27;58.47;99245.34;5073623;28;20028;-69
2021/04/29 04:30:20;;;;;;;23.40;19.63;;;;;;;13.19;59.75;99256.25;5070592;28;20036;-69
2021/04/29 04:32:45;;;;;;;21.35;18.95;;;;;;;10.18;69.54;99252.91;5073623;28;20518;-68
2021/04/29 04:35:11;;;;;;;21.23;18.42;;;;;;;9.66;72.74;99250.91;5059489;28;20150;-68
2021/04/29 04:37:36;;;;;;;22.10;18.48;;;;;;;10.57;71.75;99249.13;5073335;28;20074;-69
2021/04/29 04:40:03;;;;;;;21.23;18.90;;;;;;;11.99;67.36;99252.16;5055889;28;20021;-68
2021/04/29 04:42:28;;;;;;;23.35;20.23;;;;;;;13.06;61.44;99261.19;5073891;28;20017;-68
2021/04/29 04:44:54;;;;;;;22.83;20.38;;;;;;;12.39;65.30;99269.19;5055514;28;20130;-69
2021/04/29 04:47:19;;;;;;;23.40;19.15;;;;;;;12.81;63.12;99266.66;5073011;28;20028;-69
2021/04/29 04:49:44;;;;;;;21.40;19.08;;;;;;;12.54;63.76;99274.78;5073297;28;20373;-69
2021/04/29 04:52:09;;;;;;;23.20;18.50;;;;;;;12.54;65.16;99275.63;5073447;28;20067;-69
2021/04/29 04:54:35;;;;;;;20.58;18.48;;;;;;;12.27;66.29;99288.16;5073094;28;20024;-68
2021/04/29 04:57:01;;;;;;;21.98;19.45;;;;;;;12.47;65.95;99290.00;5072336;28;20035;-69
2021/04/29 04:59:26;;;;;;;22.50;19.00;;;;;;;12.15;66.60;99293.00;5055572;28;20502;-69
2021/04/29 05:01:51;;;;;;;23.90;18.80;;;;;;;12.48;65.43;99291.75;5072956;28;20040;-68
2021/04/29 05:04:16;;;;;;;25.02;19.88;;;;;;;12.40;65.93;99292.03;5055610;28;20028;-69
2021/04/29 05:06:42;;;;;;;21.98;18.50;;;;;;;12.15;67.90;99295.66;5072883;28;20025;-69
2021/04/29 05:09:07;;;;;;;22.38;19.52;;;;;;;12.42;66.93;99302.56;5058489;28;20027;-69
2021/04/29 05:11:32;;;;;;;23.02;19.95;;;;;;;12.40;66.89;99297.34;5071420;28;20036;-70
2021/04/29 05:13:59;;;;;;;22.15;19.27;;;;;;;12.29;66.20;99307.47;5073093;28;20048;-69
2021/04/29 05:16:24;;;;;;;22.95;18.60;;;;;;;12.85;64.88;99294.72;5071593;28;20119;-68
2021/04/29 05:18:50;;;;;;;24.35;19.45;;;;;;;13.12;64.69;99294.50;5071824;28;20507;-69
2021/04/29 05:21:15;;;;;;;22.92;18.30;;;;;;;13.28;62.99;99296.50;5065498;28;20032;-69
2021/04/29 05:23:40;;;;;;;27.25;19.05;;;;;;;12.35;65.60;99295.78;5072844;28;20031;-68
2021/04/29 05:26:05;;;;;;;23.40;18.80;;;;;;;12.80;65.48;99291.38;5071270;28;20024;-69
2021/04/29 05:28:31;;;;;;;24.65;19.50;;;;;;;12.32;66.21;99295.00;5071554;28;20073;-69
2021/04/29 05:30:56;;;;;;;22.60;19.90;;;;;;;12.79;66.55;99284.38;5072781;28;20479;-68
2021/04/29 05:33:21;;;;;;;21.67;19.35;;;;;;;13.02;62.63;99285.22;5072534;28;20031;-69
2021/04/29 05:35:47;;;;;;;20.58;18.42;;;;;;;13.04;63.96;99283.38;5071755;28;20086;-69
2021/04/29 05:38:12;;;;;;;22.48;18.52;;;;;;;13.02;63.81;99290.50;5071339;28;20032;-69
2021/04/29 05:40:37;;;;;;;22.15;18.77;;;;;;;12.58;63.43;99276.38;5072497;28;20031;-69
2021/04/29 05:43:03;;;;;;;21.40;19.02;;;;;;;13.12;62.46;99281.25;5072586;28;20127;-69
2021/04/29 05:45:28;;;;;;;20.73;18.55;;;;;;;13.21;63.62;99290.59;5062537;28;20027;-69
2021/04/29 05:47:53;;;;;;;23.35;19.92;;;;;;;13.64;63.06;99300.31;5058009;28;20028;-69
2021/04/29 05:50:19;;;;;;;22.75;19.23;;;;;;;14.17;61.26;99290.00;5071065;28;20029;-68
2021/04/29 05:52:44;;;;;;;21.20;19.13;;;;;;;14.46;58.55;99291.28;5054469;28;20029;-69
2021/04/29 05:55:10;;;;;;;22.50;19.85;;;;;;;14.80;58.48;99277.38;5071995;28;20468;-69
2021/04/29 05:57:35;;;;;;;21.40;18.85;;;;;;;14.30;60.10;99280.53;5071904;28;20078;-69
2021/04/29 06:00:00;;;;;;;21.00;18.77;;;;;;;14.41;60.22;99290.66;5063870;28;20082;-69
2021/04/29 06:02:26;;;;;;;24.17;18.98;;;;;;;14.62;58.24;99290.53;5054447;28;20025;-69
2021/04/29 06:04:51;;;;;;;27.58;22.27;;;;;;;14.62;58.56;99279.94;5072313;28;20426;-69
2021/04/29 06:07:18;;;;;;;24.38;21.75;;;;;;;14.40;58.25;99291.56;5071780;28;20386;-69
2021/04/29 06:09:43;;;;;;;24.70;20.27;;;;;;;14.18;59.35;99291.72;5067257;28;20067;-69
2021/04/29 06:12:08;;;;;;;21.50;19.27;;;;;;;14.50;60.33;99290.19;5070898;28;20040;-69
2021/04/29 06:14:34;;;;;;;24.15;21.45;;;;;;;14.30;59.57;99307.06;5072120;28;20424;-69
2021/04/29 06:17:00;;;;;;;30.45;27.33;;;;;;;15.74;56.76;99305.41;5070423;28;20024;-69
2021/04/29 06:19:26;;;;;;;20.48;18.27;;;;;;;16.32;55.09;99305.03;5070734;28;20028;-69
2021/04/29 06:21:51;;;;;;;20.52;18.42;;;;;;;18.01;48.28;99307.72;5071650;28;20369;-69
2021/04/29 06:24:16;;;;;;;22.00;19.13;;;;;;;16.36;51.78;99295.94;5053915;28;20025;-69
2021/04/29 06:26:42;;;;;;;22.20;18.65;;;;;;;15.95;53.16;99303.44;5071554;28;20111;-69
2021/04/29 06:29:08;;;;;;;21.17;18.65;;;;;;;16.54;52.73;99310.88;5054019;28;20021;-69
2021/04/29 06:31:36;;;;;;;21.73;19.05;;;;;;;17.30;50.81;99305.72;5071882;28;20024;-69
2021/04/29 06:34:02;;;;;;;22.50;19.95;;;;;;;17.34;50.01;99309.06;5071354;28;20081;-69
2021/04/29 06:36:28;;;;;;;21.73;19.48;;;;;;;16.87;51.57;99322.38;5070341;28;20078;-69
2021/04/29 06:38:53;;;;;;;22.75;18.67;;;;;;;16.48;51.78;99326.34;5071660;28;20433;-69
2021/04/29 06:41:18;;;;;;;21.08;18.65;;;;;;;16.18;53.35;99324.41;5071715;28;20446;-69
2021/04/29 06:43:44;;;;;;;19.30;17.30;;;;;;;17.07;50.91;99323.03;5071820;28;20032;-69
2021/04/29 06:46:11;;;;;;;19.88;17.88;;;;;;;17.43;50.46;99324.50;5072667;28;20017;-69
2021/04/29 06:48:36;;;;;;;19.95;17.83;;;;;;;18.64;47.40;99334.06;5075841;28;20387;-69
2021/04/29 06:51:01;;;;;;;21.15;17.90;;;;;;;18.53;47.84;99328.56;5075760;28;20039;-69
2021/04/29 06:53:27;;;;;;;22.05;18.15;;;;;;;20.02;45.38;99328.59;5075721;28;20028;-69
2021/04/29 06:55:52;;;;;;;20.20;16.88;;;;;;;21.02;42.54;99326.84;5074256;28;20029;-69
2021/04/29 06:58:17;;;;;;;17.98;16.13;;;;;;;22.61;38.68;99322.72;5058635;28;20395;-69
2021/04/29 07:00:43;;;;;;;18.55;16.67;;;;;;;25.39;34.98;99327.72;5075677;28;20472;-69
2021/04/29 07:03:08;;;;;;;19.02;16.05;;;;;;;25.59;35.32;99333.97;5057645;28;20056;-70
2021/04/29 07:05:33;;;;;;;16.98;15.25;;;;;;;27.85;31.30;99343.63;5075272;28;20020;-70
2021/04/29 07:07:58;;;;;;;16.63;15.13;;;;;;;24.76;35.92;99332.47;5057524;28;20028;-70
2021/04/29 07:10:24;;;;;;;18.13;16.42;;;;;;;22.99;40.16;99341.22;5075194;28;20028;-70
2021/04/29 07:12:50;;;;;;;24.48;22.10;;;;;;;23.02;39.49;99341.81;5075503;28;20123;-70
2021/04/29 07:15:16;;;;;;;17.27;15.27;;;;;;;24.58;36.81;99343.94;5075125;28;20020;-69
2021/04/29 07:17:42;;;;;;;17.63;15.05;;;;;;;27.44;31.51;99347.69;5057227;28;20455;-69
2021/04/29 07:20:08;;;;;;;16.20;14.48;;;;;;;27.27;32.80;99352.13;5075178;28;20021;-69
2021/04/29 07:22:33;;;;;;;17.55;14.35;;;;;;;28.87;31.27;99345.63;5075760;28;20379;-69
2021/04/29 07:24:59;;;;;;;16.50;14.90;;;;;;;30.29;27.67;99342.91;5075136;28;20028;-70
2021/04/29 07:27:24;;;;;;;15.32;13.85;;;;;;;26.69;31.92;99341.56;5074846;28;20032;-70
2021/04/29 07:29:49;;;;;;;15.38;13.95;;;;;;;26.74;32.50;99338.41;5075104;28;20024;-70
2021/04/29 07:32:14;;;;;;;16.15;14.45;;;;;;;25.02;35.21;99337.38;5074618;28;20040;-70
2021/04/29 07:34:40;;;;;;;15.82;14.32;;;;;;;26.35;32.61;99343.03;5057544;28;20064;-69
2021/04/29 07:37:05;;;;;;;16.30;14.75;;;;;;;27.96;31.03;99335.25;5074418;28;20043;-69
2021/04/29 07:39:30;;;;;;;15.82;14.40;;;;;;;30.18;27.89;99311.53;5056917;28;20032;-69
2021/04/29 07:41:56;;;;;;;16.85;14.70;;;;;;;28.04;31.46;99308.19;5075043;28;20021;-70
2021/04/29 07:44:22;;;;;;;18.10;16.02;;;;;;;30.18;27.16;99315.06;5056911;28;20417;-70
2021/04/29 07:46:47;;;;;;;19.48;17.50;;;;;;;30.05;27.53;99306.59;5074316;28;20054;-70
2021/04/29 07:49:12;;;;;;;17.35;15.38;;;;;;;30.02;28.73;99310.53;5073093;28;20039;-70
2021/04/29 07:51:38;;;;;;;17.90;16.08;;;;;;;29.15;28.91;99325.53;5074665;28;20028;-70
2021/04/29 07:54:04;;;;;;;19.63;17.50;;;;;;;31.61;25.38;99333.06;5074549;28;20070;-70
2021/04/29 07:56:30;;;;;;;16.83;14.98;;;;;;;29.97;27.36;99350.94;5074136;28;20512;-70
2021/04/29 07:58:55;;;;;;;16.75;15.02;;;;;;;25.01;34.99;99341.94;5074170;28;20028;-70
2021/04/29 08:01:20;;;;;;;17.02;15.43;;;;;;;27.88;31.50;99341.44;5074325;28;20549;-70
2021/04/29 08:03:45;;;;;;;15.90;14.30;;;;;;;24.31;36.24;99348.09;5073259;28;20054;-70
2021/04/29 08:06:11;;;;;;;16.30;14.77;;;;;;;24.72;37.38;99348.09;5074172;28;20021;-69
2021/04/29 08:08:36;;;;;;;16.23;14.55;;;;;;;29.95;29.12;99348.41;5068166;28;20048;-70
2021/04/29 08:11:02;;;;;;;14.02;12.63;;;;;;;31.80;25.39;99355.38;5074375;28;20032;-71
2021/04/29 08:13:27;;;;;;;14.15;12.95;;;;;;;32.82;24.62;99354.91;5074256;28;20028;-70
2021/04/29 08:15:52;;;;;;;13.75;12.32;;;;;;;32.25;25.75;99360.88;5073614;28;20472;-70
2021/04/29 08:18:18;;;;;;;14.00;12.75;;;;;;;33.22;24.17;99357.25;5074151;28;20107;-70
2021/04/29 08:20:43;;;;;;;12.23;11.18;;;;;;;34.19;22.89;99355.94;5055841;28;20388;-70
2021/04/29 08:23:08;;;;;;;10.88;9.98;;;;;;;32.97;23.36;99362.22;5072849;28;20157;-70
2021/04/29 08:25:34;;;;;;;11.85;10.68;;;;;;;34.36;22.68;99372.84;5073815;28;20016;-70
2021/04/29 08:28:00;;;;;;;16.67;11.90;;;;;;;34.98;22.26;99380.28;5072802;28;20082;-70
2021/04/29 08:30:28;;;;;;;11.43;10.27;;;;;;;31.36;25.63;99381.47;5072747;28;20020;-70
2021/04/29 08:32:55;;;;;;;13.15;11.95;;;;;;;26.09;32.23;99383.31;5071086;28;20035;-70
2021/04/29 08:35:21;;;;;;;11.75;10.75;;;;;;;23.91;36.02;99395.50;5072044;28;20097;-70
2021/04/29 08:37:46;;;;;;;14.57;13.38;;;;;;;22.20;39.22;99396.72;5073694;28;20468;-70
2021/04/29 08:40:11;;;;;;;14.02;12.63;;;;;;;21.23;41.18;99403.94;5073849;28;20029;-69
2021/04/29 08:42:37;;;;;;;15.50;14.00;;;;;;;20.42;43.07;99407.03;5072513;28;20028;-69
2021/04/29 08:45:04;;;;;;;16.13;14.52;;;;;;;21.30;41.18;99409.72;5073650;28;20103;-69
2021/04/29 08:47:30;;;;;;;15.63;14.18;;;;;;;20.62;42.43;99406.47;5073328;28;20027;-69
2021/04/29 08:49:55;;;;;;;16.27;14.68;;;;;;;20.89;42.81;99400.13;5073432;28;20032;-70
2021/04/29 08:52:20;;;;;;;16.10;14.50;;;;;;;20.92;43.20;99395.50;5071836;28;20111;-69
2021/04/29 08:54:47;;;;;;;15.73;14.05;;;;;;;22.01;40.14;99406.22;5073496;28;20506;-69
2021/04/29 08:57:13;;;;;;;21.50;14.00;;;;;;;23.63;37.29;99400.53;5073130;28;20058;-69
2021/04/29 08:59:39;;;;;;;14.43;13.00;;;;;;;26.58;32.82;99403.94;5055415;28;20550;-70
2021/04/29 09:02:04;;;;;;;13.88;12.52;;;;;;;26.50;32.24;99397.44;5073348;28;20024;-70
2021/04/29 09:04:41;;;;;;;14.50;12.52;;;;;;;27.07;32.02;99408.25;5072090;28;20034;-70
2021/04/29 09:07:12;;;;;;;14.27;12.80;;;;;;;28.05;30.43;99396.59;5055301;28;20026;-70
2021/04/29 09:09:45;;;;;;;12.63;11.43;;;;;;;27.96;30.49;99400.28;5037802;28;20391;-70
2021/04/29 09:12:11;;;;;;;12.82;11.43;;;;;;;28.88;29.32;99406.19;5055336;28;20052;-70
2021/04/29 09:14:38;;;;;;;12.40;11.30;;;;;;;26.66;32.38;99398.63;5073087;28;20428;-70
2021/04/29 09:17:04;;;;;;;13.15;12.05;;;;;;;26.11;33.52;99400.25;5054717;28;20027;-70
2021/04/29 09:19:35;;;;;;;12.93;11.65;;;;;;;27.42;31.22;99404.69;5055095;28;20383;-70
2021/04/29 09:22:00;;;;;;;;;;;;;;;26.17;32.92;99394.25;5057134;28;20028;-70
2021/04/29 09:24:37;;;;;;;13.57;12.27;;;;;;;25.39;34.24;99398.72;5054888;28;20318;-70
2021/04/29 09:27:23;;;;;;;12.02;10.93;;;;;;;27.58;30.92;99399.59;5054804;28;20107;-70
2021/04/29 09:30:00;;;;;;;12.68;11.55;;;;;;;26.61;32.65;99409.06;5072729;28;20058;-70
2021/04/29 09:32:33;;;;;;;11.07;9.60;;;;;;;27.82;32.63;99404.41;5072746;28;20051;-70
2021/04/29 09:34:59;;;;;;;10.45;9.48;;;;;;;29.44;29.40;99398.34;5071589;28;20434;-70
2021/04/29 09:37:39;;;;;;;10.80;9.70;;;;;;;27.98;31.47;99398.25;5071120;28;20024;-70
2021/04/29 09:40:07;;;;;;;8.60;7.90;;;;;;;31.40;26.83;99410.03;5071444;28;20098;-70
2021/04/29 09:42:35;;;;;;;8.75;8.02;;;;;;;30.42;27.54;99407.63;5057045;28;20033;-70
2021/04/29 09:45:00;;;;;;;11.07;8.80;;;;;;;29.77;27.66;99402.94;5054558;28;20028;-70
2021/04/29 09:47:26;;;;;;;8.63;7.93;;;;;;;29.25;27.84;99407.66;5072168;28;20069;-70
2021/04/29 09:49:51;;;;;;;10.13;7.68;;;;;;;27.67;29.24;99404.97;5071223;28;20028;-70
2021/04/29 09:52:23;;;;;;;8.40;7.70;;;;;;;24.57;34.54;99404.19;5072250;28;20035;-70
2021/04/29 09:54:51;;;;;;;9.98;8.57;;;;;;;23.18;36.84;99395.16;5055709;28;20059;-70
2021/04/29 09:57:22;;;;;;;8.43;7.72;;;;;;;23.05;37.13;99405.25;5070569;28;20040;-69
2021/04/29 09:59:50;;;;;;;;;;;;;;;22.07;39.70;99405.72;5072845;28;20028;-69
2021/04/29 10:02:17;;;;;;;9.55;8.55;;;;;;;21.77;40.45;99404.44;5072371;28;19908;-69
2021/04/29 10:04:44;;;;;;;10.13;9.27;;;;;;;21.49;40.09;99411.88;5072187;28;20453;-70
2021/04/29 10:07:10;;;;;;;9.73;8.85;;;;;;;20.91;41.57;99408.06;5037353;28;20445;-69
2021/04/29 10:09:36;;;;;;;10.73;9.07;;;;;;;21.26;40.96;99409.09;5054246;28;20056;-69
2021/04/29 10:12:11;;;;;;;10.25;9.32;;;;;;;21.49;41.28;99404.69;5070330;28;20104;-70
2021/04/29 10:14:41;;;;;;;9.85;8.95;;;;;;;21.16;40.70;99406.22;5066971;28;20032;-69
2021/04/29 10:17:09;;;;;;;11.60;10.55;;;;;;;21.49;40.32;99398.47;5071650;28;20028;-69
2021/04/29 10:19:38;;;;;;;12.13;11.02;;;;;;;21.43;40.03;99399.78;5071990;28;20036;-69
2021/04/29 10:22:05;;;;;;;10.63;9.80;;;;;;;22.20;39.69;99396.72;5071760;28;20035;-69
2021/04/29 10:24:30;;;;;;;10.55;9.48;;;;;;;22.76;38.04;99409.31;5070722;28;20066;-69
2021/04/29 10:27:00;;;;;;;14.50;12.52;;;;;;;22.77;37.64;99421.78;5071891;28;20017;-69
2021/04/29 10:29:26;;;;;;;10.98;9.68;;;;;;;22.61;37.93;99410.56;5071633;28;20525;-70
2021/04/29 10:31:58;;;;;;;10.80;9.70;;;;;;;22.21;37.71;99415.38;5071754;28;20064;-69
2021/04/29 10:34:36;;;;;;;11.65;10.65;;;;;;;22.17;37.11;99430.88;5053849;28;20104;-70
2021/04/29 10:37:13;;;;;;;10.27;9.35;;;;;;;21.92;38.26;99427.44;5053629;28;20021;-70
2021/04/29 10:39:59;;;;;;;10.88;9.82;;;;;;;22.01;38.03;99425.84;5053907;28;20055;-70
2021/04/29 10:42:30;;;;;;;10.57;9.68;;;;;;;22.76;36.77;99425.44;5070654;28;20467;-72
2021/04/29 10:45:07;;;;;;;9.05;8.15;;;;;;;22.82;35.48;99432.16;5068807;28;20078;-70
2021/04/29 10:47:32;;;;;;;9.35;8.32;;;;;;;23.00;36.08;99423.56;5071589;28;20051;-70
2021/04/29 10:50:10;;;;;;;15.90;8.60;;;;;;;23.99;34.70;99427.13;5053748;28;20055;-70
2021/04/29 10:52:49;;;;;;;9.70;8.18;;;;;;;25.60;32.32;99430.13;5071696;28;20041;-70
2021/04/29 10:55:36;;;;;;;8.70;7.80;;;;;;;27.84;30.67;99431.34;5053452;28;20472;-70
2021/04/29 10:58:02;;;;;;;8.02;7.22;;;;;;;29.28;26.53;99434.44;5053624;28;20491;-70
2021/04/29 11:00:33;;;;;;;10.02;7.40;;;;;;;30.25;25.11;99429.41;5053572;28;20503;-71
2021/04/29 11:03:06;;;;;;;7.57;6.82;;;;;;;30.89;24.87;99422.25;5071312;28;20078;-70
2021/04/29 11:05:34;;;;;;;7.18;6.47;;;;;;;29.82;24.11;99411.44;5069775;28;20387;-70
2021/04/29 11:08:04;;;;;;;6.32;5.68;;;;;;;30.10;25.30;99410.19;5070210;28;20029;-70
2021/04/29 11:10:35;;;;;;;6.65;6.03;;;;;;;29.36;25.01;99413.75;5070338;28;20116;-70
2021/04/29 11:13:03;;;;;;;7.05;6.43;;;;;;;29.65;26.60;99401.59;5071540;28;20116;-70
2021/04/29 11:15:30;;;;;;;7.90;5.35;;;;;;;29.67;26.26;99405.00;5069962;28;20463;-70
2021/04/29 11:18:12;;;;;;;7.18;5.05;;;;;;;29.86;26.29;99403.78;5067233;28;20017;-70